sensor_id;sensor_type;location;lat;lon;timestamp;P1;durP1;ratioP1;P2;durP2;ratioP2
3633;SDS011;1833;42.718;23.270;2023-07-13T00:01:46;52.53;;;47.70;;
3633;SDS011;1833;42.718;23.270;2023-07-13T00:04:15;60.20;;;53.90;;
3633;SDS011;1833;42.718;23.270;2023-07-13T00:06:43;56.53;;;51.13;;
3633;SDS011;1833;42.718;23.270;2023-07-13T00:09:11;51.67;;;47.10;;
3633;SDS011;1833;42.718;23.270;2023-07-13T00:11:39;79.57;;;60.73;;
3633;SDS011;1833;42.718;23.270;2023-07-13T00:14:06;49.77;;;45.40;;
3633;SDS011;1833;42.718;23.270;2023-07-13T00:16:34;46.77;;;43.00;;
3633;SDS011;1833;42.718;23.270;2023-07-13T00:19:03;48.80;;;44.40;;
3633;SDS011;1833;42.718;23.270;2023-07-13T00:21:30;66.50;;;59.80;;
3633;SDS011;1833;42.718;23.270;2023-07-13T00:23:57;47.03;;;43.23;;
3633;SDS011;1833;42.718;23.270;2023-07-13T00:26:25;50.60;;;46.57;;
3633;SDS011;1833;42.718;23.270;2023-07-13T00:28:52;46.57;;;43.10;;
3633;SDS011;1833;42.718;23.270;2023-07-13T00:31:20;52.70;;;47.93;;
3633;SDS011;1833;42.718;23.270;2023-07-13T00:33:47;48.07;;;44.17;;
3633;SDS011;1833;42.718;23.270;2023-07-13T00:36:16;50.33;;;46.30;;
3633;SDS011;1833;42.718;23.270;2023-07-13T00:38:43;57.40;;;52.03;;
3633;SDS011;1833;42.718;23.270;2023-07-13T00:41:10;54.00;;;49.27;;
3633;SDS011;1833;42.718;23.270;2023-07-13T00:43:38;70.50;;;63.07;;
3633;SDS011;1833;42.718;23.270;2023-07-13T00:46:16;78.67;;;65.13;;
3633;SDS011;1833;42.718;23.270;2023-07-13T00:48:44;68.20;;;61.77;;
3633;SDS011;1833;42.718;23.270;2023-07-13T00:51:12;83.63;;;75.10;;
3633;SDS011;1833;42.718;23.270;2023-07-13T00:53:42;136.07;;;104.40;;
3633;SDS011;1833;42.718;23.270;2023-07-13T00:56:09;50.97;;;45.43;;
3633;SDS011;1833;42.718;23.270;2023-07-13T00:58:37;38.53;;;34.93;;
3633;SDS011;1833;42.718;23.270;2023-07-13T01:01:04;48.23;;;44.43;;
3633;SDS011;1833;42.718;23.270;2023-07-13T01:03:32;51.40;;;47.27;;
3633;SDS011;1833;42.718;23.270;2023-07-13T01:06:01;115.03;;;86.07;;
3633;SDS011;1833;42.718;23.270;2023-07-13T01:08:29;56.67;;;51.43;;
3633;SDS011;1833;42.718;23.270;2023-07-13T01:10:58;58.27;;;53.17;;
3633;SDS011;1833;42.718;23.270;2023-07-13T01:13:25;65.13;;;59.23;;
3633;SDS011;1833;42.718;23.270;2023-07-13T01:15:52;76.83;;;69.23;;
3633;SDS011;1833;42.718;23.270;2023-07-13T01:18:21;63.43;;;57.17;;
3633;SDS011;1833;42.718;23.270;2023-07-13T01:20:52;119.20;;;89.20;;
3633;SDS011;1833;42.718;23.270;2023-07-13T01:23:19;59.30;;;54.10;;
3633;SDS011;1833;42.718;23.270;2023-07-13T01:25:46;56.63;;;51.57;;
3633;SDS011;1833;42.718;23.270;2023-07-13T01:28:13;55.90;;;50.63;;
3633;SDS011;1833;42.718;23.270;2023-07-13T01:30:42;50.00;;;46.30;;
3633;SDS011;1833;42.718;23.270;2023-07-13T01:33:11;50.53;;;46.43;;
3633;SDS011;1833;42.718;23.270;2023-07-13T01:35:38;49.33;;;45.63;;
3633;SDS011;1833;42.718;23.270;2023-07-13T01:38:07;49.00;;;45.17;;
3633;SDS011;1833;42.718;23.270;2023-07-13T01:40:35;47.90;;;44.20;;
3633;SDS011;1833;42.718;23.270;2023-07-13T01:43:03;50.30;;;46.07;;
3633;SDS011;1833;42.718;23.270;2023-07-13T01:45:31;48.70;;;44.60;;
3633;SDS011;1833;42.718;23.270;2023-07-13T01:47:58;52.33;;;48.07;;
3633;SDS011;1833;42.718;23.270;2023-07-13T01:50:26;55.10;;;50.60;;
3633;SDS011;1833;42.718;23.270;2023-07-13T01:52:53;75.10;;;67.80;;
3633;SDS011;1833;42.718;23.270;2023-07-13T01:55:22;69.87;;;63.07;;
3633;SDS011;1833;42.718;23.270;2023-07-13T01:57:49;53.30;;;48.67;;
3633;SDS011;1833;42.718;23.270;2023-07-13T02:00:17;54.63;;;50.20;;
3633;SDS011;1833;42.718;23.270;2023-07-13T02:02:44;51.67;;;47.40;;
3633;SDS011;1833;42.718;23.270;2023-07-13T02:05:12;61.90;;;56.00;;
3633;SDS011;1833;42.718;23.270;2023-07-13T02:07:39;52.90;;;48.50;;
3633;SDS011;1833;42.718;23.270;2023-07-13T02:10:08;50.80;;;46.67;;
3633;SDS011;1833;42.718;23.270;2023-07-13T02:12:36;51.07;;;46.17;;
3633;SDS011;1833;42.718;23.270;2023-07-13T02:15:04;48.67;;;44.47;;
3633;SDS011;1833;42.718;23.270;2023-07-13T02:17:32;47.70;;;44.00;;
3633;SDS011;1833;42.718;23.270;2023-07-13T02:19:59;52.27;;;47.77;;
3633;SDS011;1833;42.718;23.270;2023-07-13T02:22:26;49.63;;;45.17;;
3633;SDS011;1833;42.718;23.270;2023-07-13T02:24:54;48.20;;;44.37;;
3633;SDS011;1833;42.718;23.270;2023-07-13T02:27:21;47.80;;;43.80;;
3633;SDS011;1833;42.718;23.270;2023-07-13T02:29:50;47.93;;;44.20;;
3633;SDS011;1833;42.718;23.270;2023-07-13T02:32:17;73.70;;;66.20;;
3633;SDS011;1833;42.718;23.270;2023-07-13T02:34:45;81.43;;;72.73;;
3633;SDS011;1833;42.718;23.270;2023-07-13T02:37:12;54.47;;;49.80;;
3633;SDS011;1833;42.718;23.270;2023-07-13T02:39:39;46.70;;;41.67;;
3633;SDS011;1833;42.718;23.270;2023-07-13T02:42:06;40.90;;;34.43;;
3633;SDS011;1833;42.718;23.270;2023-07-13T02:44:34;52.57;;;47.77;;
3633;SDS011;1833;42.718;23.270;2023-07-13T02:47:02;35.23;;;32.03;;
3633;SDS011;1833;42.718;23.270;2023-07-13T02:49:29;41.00;;;34.40;;
3633;SDS011;1833;42.718;23.270;2023-07-13T02:51:57;46.03;;;41.00;;
3633;SDS011;1833;42.718;23.270;2023-07-13T02:54:24;48.87;;;43.37;;
3633;SDS011;1833;42.718;23.270;2023-07-13T02:56:52;33.57;;;30.77;;
3633;SDS011;1833;42.718;23.270;2023-07-13T02:59:19;41.73;;;32.00;;
3633;SDS011;1833;42.718;23.270;2023-07-13T03:01:46;50.20;;;37.03;;
3633;SDS011;1833;42.718;23.270;2023-07-13T03:04:15;67.40;;;33.73;;
3633;SDS011;1833;42.718;23.270;2023-07-13T03:06:44;32.73;;;29.43;;
3633;SDS011;1833;42.718;23.270;2023-07-13T03:09:12;41.03;;;34.83;;
3633;SDS011;1833;42.718;23.270;2023-07-13T03:11:40;40.10;;;35.67;;
3633;SDS011;1833;42.718;23.270;2023-07-13T03:14:07;40.13;;;30.63;;
3633;SDS011;1833;42.718;23.270;2023-07-13T03:16:35;34.83;;;31.57;;
3633;SDS011;1833;42.718;23.270;2023-07-13T03:19:02;52.93;;;36.33;;
3633;SDS011;1833;42.718;23.270;2023-07-13T03:21:31;49.73;;;39.87;;
3633;SDS011;1833;42.718;23.270;2023-07-13T03:23:58;59.97;;;34.87;;
3633;SDS011;1833;42.718;23.270;2023-07-13T03:26:26;34.03;;;30.60;;
3633;SDS011;1833;42.718;23.270;2023-07-13T03:28:53;31.43;;;28.73;;
3633;SDS011;1833;42.718;23.270;2023-07-13T03:31:21;32.63;;;29.43;;
3633;SDS011;1833;42.718;23.270;2023-07-13T03:33:48;31.93;;;28.63;;
3633;SDS011;1833;42.718;23.270;2023-07-13T03:36:17;35.67;;;31.87;;
3633;SDS011;1833;42.718;23.270;2023-07-13T03:38:47;32.33;;;29.13;;
3633;SDS011;1833;42.718;23.270;2023-07-13T03:41:14;34.60;;;30.23;;
3633;SDS011;1833;42.718;23.270;2023-07-13T03:43:41;37.90;;;34.10;;
3633;SDS011;1833;42.718;23.270;2023-07-13T03:46:09;31.90;;;28.87;;
3633;SDS011;1833;42.718;23.270;2023-07-13T03:48:36;32.10;;;29.17;;
3633;SDS011;1833;42.718;23.270;2023-07-13T03:51:05;50.53;;;31.97;;
3633;SDS011;1833;42.718;23.270;2023-07-13T03:53:32;31.27;;;28.70;;
3633;SDS011;1833;42.718;23.270;2023-07-13T03:56:01;32.90;;;30.20;;
3633;SDS011;1833;42.718;23.270;2023-07-13T03:58:32;32.70;;;29.97;;
3633;SDS011;1833;42.718;23.270;2023-07-13T04:01:00;32.50;;;29.10;;
3633;SDS011;1833;42.718;23.270;2023-07-13T04:03:28;35.37;;;31.77;;
3633;SDS011;1833;42.718;23.270;2023-07-13T04:05:57;36.63;;;32.90;;
3633;SDS011;1833;42.718;23.270;2023-07-13T04:08:26;35.87;;;31.07;;
3633;SDS011;1833;42.718;23.270;2023-07-13T04:10:53;35.40;;;31.90;;
3633;SDS011;1833;42.718;23.270;2023-07-13T04:13:22;37.53;;;33.70;;
3633;SDS011;1833;42.718;23.270;2023-07-13T04:15:49;35.67;;;32.30;;
3633;SDS011;1833;42.718;23.270;2023-07-13T04:18:16;36.00;;;32.60;;
3633;SDS011;1833;42.718;23.270;2023-07-13T04:20:44;35.78;;;32.55;;
3633;SDS011;1833;42.718;23.270;2023-07-13T04:23:12;36.10;;;32.90;;
3633;SDS011;1833;42.718;23.270;2023-07-13T04:25:39;37.00;;;32.72;;
3633;SDS011;1833;42.718;23.270;2023-07-13T04:28:06;36.80;;;32.55;;
3633;SDS011;1833;42.718;23.270;2023-07-13T04:30:35;38.13;;;34.60;;
3633;SDS011;1833;42.718;23.270;2023-07-13T04:33:02;38.28;;;34.33;;
3633;SDS011;1833;42.718;23.270;2023-07-13T04:35:29;37.20;;;33.28;;
3633;SDS011;1833;42.718;23.270;2023-07-13T04:37:57;36.95;;;33.15;;
3633;SDS011;1833;42.718;23.270;2023-07-13T04:40:25;43.42;;;33.47;;
3633;SDS011;1833;42.718;23.270;2023-07-13T04:42:53;39.45;;;35.72;;
3633;SDS011;1833;42.718;23.270;2023-07-13T04:45:21;37.58;;;34.08;;
3633;SDS011;1833;42.718;23.270;2023-07-13T04:47:50;38.22;;;34.60;;
3633;SDS011;1833;42.718;23.270;2023-07-13T04:50:17;41.42;;;34.53;;
3633;SDS011;1833;42.718;23.270;2023-07-13T04:52:48;39.58;;;35.13;;
3633;SDS011;1833;42.718;23.270;2023-07-13T04:55:15;39.42;;;35.20;;
3633;SDS011;1833;42.718;23.270;2023-07-13T04:57:43;38.03;;;34.28;;
3633;SDS011;1833;42.718;23.270;2023-07-13T05:00:10;39.67;;;35.45;;
3633;SDS011;1833;42.718;23.270;2023-07-13T05:02:38;40.72;;;36.55;;
3633;SDS011;1833;42.718;23.270;2023-07-13T05:05:08;40.33;;;36.03;;
3633;SDS011;1833;42.718;23.270;2023-07-13T05:07:35;38.53;;;34.67;;
3633;SDS011;1833;42.718;23.270;2023-07-13T05:10:02;36.53;;;32.95;;
3633;SDS011;1833;42.718;23.270;2023-07-13T05:12:30;40.75;;;35.47;;
3633;SDS011;1833;42.718;23.270;2023-07-13T05:14:57;35.15;;;31.95;;
3633;SDS011;1833;42.718;23.270;2023-07-13T05:17:24;36.45;;;33.35;;
3633;SDS011;1833;42.718;23.270;2023-07-13T05:19:51;38.88;;;34.90;;
3633;SDS011;1833;42.718;23.270;2023-07-13T05:22:20;38.92;;;34.97;;
3633;SDS011;1833;42.718;23.270;2023-07-13T05:24:47;37.88;;;34.40;;
3633;SDS011;1833;42.718;23.270;2023-07-13T05:27:15;42.17;;;34.63;;
3633;SDS011;1833;42.718;23.270;2023-07-13T05:29:42;40.88;;;36.78;;
3633;SDS011;1833;42.718;23.270;2023-07-13T05:32:09;38.75;;;35.22;;
3633;SDS011;1833;42.718;23.270;2023-07-13T05:34:36;37.92;;;34.40;;
3633;SDS011;1833;42.718;23.270;2023-07-13T05:37:04;38.22;;;34.63;;
3633;SDS011;1833;42.718;23.270;2023-07-13T05:39:32;40.03;;;36.03;;
3633;SDS011;1833;42.718;23.270;2023-07-13T05:42:00;38.42;;;34.92;;
3633;SDS011;1833;42.718;23.270;2023-07-13T05:44:27;37.22;;;33.90;;
3633;SDS011;1833;42.718;23.270;2023-07-13T05:46:54;35.97;;;32.53;;
3633;SDS011;1833;42.718;23.270;2023-07-13T05:49:22;38.97;;;35.03;;
3633;SDS011;1833;42.718;23.270;2023-07-13T05:51:49;38.65;;;34.97;;
3633;SDS011;1833;42.718;23.270;2023-07-13T05:54:16;38.35;;;34.83;;
3633;SDS011;1833;42.718;23.270;2023-07-13T05:56:45;37.95;;;34.63;;
3633;SDS011;1833;42.718;23.270;2023-07-13T05:59:12;38.10;;;34.30;;
3633;SDS011;1833;42.718;23.270;2023-07-13T06:01:39;37.40;;;34.15;;
3633;SDS011;1833;42.718;23.270;2023-07-13T06:04:07;37.40;;;33.85;;
3633;SDS011;1833;42.718;23.270;2023-07-13T06:06:35;64.85;;;52.05;;
3633;SDS011;1833;42.718;23.270;2023-07-13T06:09:02;58.30;;;52.03;;
3633;SDS011;1833;42.718;23.270;2023-07-13T06:11:29;37.45;;;34.08;;
3633;SDS011;1833;42.718;23.270;2023-07-13T06:13:58;34.80;;;31.80;;
3633;SDS011;1833;42.718;23.270;2023-07-13T06:16:25;39.78;;;35.05;;
3633;SDS011;1833;42.718;23.270;2023-07-13T06:18:52;38.63;;;34.90;;
3633;SDS011;1833;42.718;23.270;2023-07-13T06:21:20;38.55;;;33.97;;
3633;SDS011;1833;42.718;23.270;2023-07-13T06:23:48;39.83;;;35.70;;
3633;SDS011;1833;42.718;23.270;2023-07-13T06:26:16;38.10;;;34.80;;
3633;SDS011;1833;42.718;23.270;2023-07-13T06:28:43;40.97;;;36.30;;
3633;SDS011;1833;42.718;23.270;2023-07-13T06:31:12;40.88;;;36.92;;
3633;SDS011;1833;42.718;23.270;2023-07-13T06:33:40;38.53;;;34.53;;
3633;SDS011;1833;42.718;23.270;2023-07-13T06:36:07;39.20;;;35.20;;
3633;SDS011;1833;42.718;23.270;2023-07-13T06:38:35;39.90;;;35.90;;
3633;SDS011;1833;42.718;23.270;2023-07-13T06:41:04;42.08;;;35.65;;
3633;SDS011;1833;42.718;23.270;2023-07-13T06:43:31;38.47;;;34.53;;
3633;SDS011;1833;42.718;23.270;2023-07-13T06:45:58;39.90;;;36.15;;
3633;SDS011;1833;42.718;23.270;2023-07-13T06:48:27;40.33;;;36.45;;
3633;SDS011;1833;42.718;23.270;2023-07-13T06:50:55;41.65;;;37.25;;
3633;SDS011;1833;42.718;23.270;2023-07-13T06:53:22;38.90;;;35.50;;
3633;SDS011;1833;42.718;23.270;2023-07-13T06:55:50;38.15;;;34.38;;
3633;SDS011;1833;42.718;23.270;2023-07-13T06:58:18;36.10;;;33.00;;
3633;SDS011;1833;42.718;23.270;2023-07-13T07:00:45;36.92;;;33.92;;
3633;SDS011;1833;42.718;23.270;2023-07-13T07:03:13;39.35;;;35.75;;
3633;SDS011;1833;42.718;23.270;2023-07-13T07:05:41;44.03;;;39.92;;
3633;SDS011;1833;42.718;23.270;2023-07-13T07:08:09;40.53;;;36.58;;
3633;SDS011;1833;42.718;23.270;2023-07-13T07:10:36;40.03;;;36.08;;
3633;SDS011;1833;42.718;23.270;2023-07-13T07:13:04;38.88;;;35.35;;
3633;SDS011;1833;42.718;23.270;2023-07-13T07:15:31;40.03;;;36.10;;
3633;SDS011;1833;42.718;23.270;2023-07-13T07:17:58;40.47;;;36.58;;
3633;SDS011;1833;42.718;23.270;2023-07-13T07:20:25;39.35;;;35.92;;
3633;SDS011;1833;42.718;23.270;2023-07-13T07:22:54;39.00;;;35.05;;
3633;SDS011;1833;42.718;23.270;2023-07-13T07:25:21;39.80;;;35.75;;
3633;SDS011;1833;42.718;23.270;2023-07-13T07:27:48;37.70;;;34.13;;
3633;SDS011;1833;42.718;23.270;2023-07-13T07:30:16;39.47;;;35.65;;
3633;SDS011;1833;42.718;23.270;2023-07-13T07:32:43;40.65;;;36.70;;
3633;SDS011;1833;42.718;23.270;2023-07-13T07:35:10;37.88;;;34.55;;
3633;SDS011;1833;42.718;23.270;2023-07-13T07:37:37;40.80;;;36.58;;
3633;SDS011;1833;42.718;23.270;2023-07-13T07:40:07;38.78;;;35.08;;
3633;SDS011;1833;42.718;23.270;2023-07-13T07:42:34;42.40;;;38.20;;
3633;SDS011;1833;42.718;23.270;2023-07-13T07:45:01;40.53;;;36.92;;
3633;SDS011;1833;42.718;23.270;2023-07-13T07:47:29;39.50;;;35.83;;
3633;SDS011;1833;42.718;23.270;2023-07-13T07:49:57;43.65;;;39.20;;
3633;SDS011;1833;42.718;23.270;2023-07-13T07:52:24;40.10;;;36.30;;
3633;SDS011;1833;42.718;23.270;2023-07-13T07:54:51;41.45;;;37.45;;
3633;SDS011;1833;42.718;23.270;2023-07-13T07:57:20;40.08;;;36.20;;
3633;SDS011;1833;42.718;23.270;2023-07-13T07:59:47;41.50;;;37.72;;
3633;SDS011;1833;42.718;23.270;2023-07-13T08:02:14;39.00;;;35.45;;
3633;SDS011;1833;42.718;23.270;2023-07-13T08:04:41;42.20;;;38.15;;
3633;SDS011;1833;42.718;23.270;2023-07-13T08:07:09;44.25;;;39.65;;
3633;SDS011;1833;42.718;23.270;2023-07-13T08:09:36;42.53;;;38.45;;
3633;SDS011;1833;42.718;23.270;2023-07-13T08:12:03;43.28;;;38.70;;
3633;SDS011;1833;42.718;23.270;2023-07-13T08:14:32;40.70;;;36.72;;
3633;SDS011;1833;42.718;23.270;2023-07-13T08:17:00;42.58;;;38.05;;
3633;SDS011;1833;42.718;23.270;2023-07-13T08:19:27;45.50;;;40.88;;
3633;SDS011;1833;42.718;23.270;2023-07-13T08:21:54;41.42;;;37.40;;
3633;SDS011;1833;42.718;23.270;2023-07-13T08:24:22;40.35;;;36.85;;
3633;SDS011;1833;42.718;23.270;2023-07-13T08:26:50;44.53;;;40.05;;
3633;SDS011;1833;42.718;23.270;2023-07-13T08:29:17;42.00;;;37.67;;
3633;SDS011;1833;42.718;23.270;2023-07-13T08:31:46;40.53;;;36.90;;
3633;SDS011;1833;42.718;23.270;2023-07-13T08:34:13;41.03;;;37.00;;
3633;SDS011;1833;42.718;23.270;2023-07-13T08:36:41;48.10;;;39.85;;
3633;SDS011;1833;42.718;23.270;2023-07-13T08:39:08;42.40;;;38.15;;
3633;SDS011;1833;42.718;23.270;2023-07-13T08:41:35;43.22;;;38.83;;
3633;SDS011;1833;42.718;23.270;2023-07-13T08:44:03;42.65;;;38.15;;
3633;SDS011;1833;42.718;23.270;2023-07-13T08:46:35;43.20;;;38.55;;
3633;SDS011;1833;42.718;23.270;2023-07-13T08:49:06;41.15;;;37.20;;
3633;SDS011;1833;42.718;23.270;2023-07-13T08:51:38;41.00;;;37.13;;
3633;SDS011;1833;42.718;23.270;2023-07-13T08:54:10;41.75;;;37.50;;
3633;SDS011;1833;42.718;23.270;2023-07-13T08:56:39;40.47;;;36.17;;
3633;SDS011;1833;42.718;23.270;2023-07-13T08:59:09;41.75;;;37.33;;
3633;SDS011;1833;42.718;23.270;2023-07-13T09:01:44;42.05;;;37.45;;
3633;SDS011;1833;42.718;23.270;2023-07-13T09:04:14;44.45;;;38.38;;
3633;SDS011;1833;42.718;23.270;2023-07-13T09:06:46;41.67;;;37.50;;
3633;SDS011;1833;42.718;23.270;2023-07-13T09:09:19;40.65;;;36.28;;
3633;SDS011;1833;42.718;23.270;2023-07-13T09:11:52;40.80;;;37.05;;
3633;SDS011;1833;42.718;23.270;2023-07-13T09:14:26;49.38;;;43.22;;
3633;SDS011;1833;42.718;23.270;2023-07-13T09:16:59;37.92;;;34.63;;
3633;SDS011;1833;42.718;23.270;2023-07-13T09:19:29;39.85;;;35.90;;
3633;SDS011;1833;42.718;23.270;2023-07-13T09:21:57;40.45;;;36.72;;
3633;SDS011;1833;42.718;23.270;2023-07-13T09:24:35;39.25;;;34.90;;
3633;SDS011;1833;42.718;23.270;2023-07-13T09:27:08;38.78;;;34.75;;
3633;SDS011;1833;42.718;23.270;2023-07-13T09:29:38;40.60;;;36.28;;
3633;SDS011;1833;42.718;23.270;2023-07-13T09:32:09;39.92;;;35.72;;
3633;SDS011;1833;42.718;23.270;2023-07-13T09:34:39;42.22;;;37.78;;
3633;SDS011;1833;42.718;23.270;2023-07-13T09:37:06;37.42;;;33.83;;
3633;SDS011;1833;42.718;23.270;2023-07-13T09:39:35;39.40;;;35.67;;
3633;SDS011;1833;42.718;23.270;2023-07-13T09:42:06;43.63;;;39.25;;
3633;SDS011;1833;42.718;23.270;2023-07-13T09:44:35;36.97;;;33.75;;
3633;SDS011;1833;42.718;23.270;2023-07-13T09:47:03;35.53;;;31.88;;
3633;SDS011;1833;42.718;23.270;2023-07-13T09:49:33;34.75;;;31.85;;
3633;SDS011;1833;42.718;23.270;2023-07-13T09:52:03;35.38;;;31.08;;
3633;SDS011;1833;42.718;23.270;2023-07-13T09:54:32;35.30;;;32.20;;
3633;SDS011;1833;42.718;23.270;2023-07-13T09:57:00;37.40;;;33.83;;
3633;SDS011;1833;42.718;23.270;2023-07-13T09:59:29;36.20;;;32.72;;
3633;SDS011;1833;42.718;23.270;2023-07-13T10:01:57;35.50;;;32.30;;
3633;SDS011;1833;42.718;23.270;2023-07-13T10:04:27;35.92;;;32.55;;
3633;SDS011;1833;42.718;23.270;2023-07-13T10:07:05;34.75;;;31.25;;
3633;SDS011;1833;42.718;23.270;2023-07-13T10:09:33;34.60;;;31.48;;
3633;SDS011;1833;42.718;23.270;2023-07-13T10:12:00;36.13;;;32.47;;
3633;SDS011;1833;42.718;23.270;2023-07-13T10:14:27;35.35;;;31.98;;
3633;SDS011;1833;42.718;23.270;2023-07-13T10:16:58;35.15;;;32.15;;
3633;SDS011;1833;42.718;23.270;2023-07-13T10:19:27;35.72;;;32.22;;
3633;SDS011;1833;42.718;23.270;2023-07-13T10:21:58;35.13;;;32.08;;
3633;SDS011;1833;42.718;23.270;2023-07-13T10:24:29;38.20;;;34.75;;
3633;SDS011;1833;42.718;23.270;2023-07-13T10:27:00;37.10;;;33.92;;
3633;SDS011;1833;42.718;23.270;2023-07-13T10:29:29;34.85;;;31.52;;
3633;SDS011;1833;42.718;23.270;2023-07-13T10:32:00;34.42;;;31.00;;
3633;SDS011;1833;42.718;23.270;2023-07-13T10:34:27;35.05;;;31.75;;
3633;SDS011;1833;42.718;23.270;2023-07-13T10:36:56;36.60;;;33.30;;
3633;SDS011;1833;42.718;23.270;2023-07-13T10:39:24;37.15;;;33.83;;
3633;SDS011;1833;42.718;23.270;2023-07-13T10:41:55;36.38;;;33.08;;
3633;SDS011;1833;42.718;23.270;2023-07-13T10:44:24;35.13;;;30.77;;
3633;SDS011;1833;42.718;23.270;2023-07-13T10:46:57;35.67;;;32.60;;
3633;SDS011;1833;42.718;23.270;2023-07-13T10:49:26;38.65;;;34.95;;
3633;SDS011;1833;42.718;23.270;2023-07-13T10:51:54;34.45;;;31.20;;
3633;SDS011;1833;42.718;23.270;2023-07-13T10:54:22;37.00;;;34.00;;
3633;SDS011;1833;42.718;23.270;2023-07-13T10:56:53;35.15;;;32.05;;
3633;SDS011;1833;42.718;23.270;2023-07-13T10:59:35;36.03;;;33.03;;
3633;SDS011;1833;42.718;23.270;2023-07-13T11:02:09;35.67;;;32.55;;
3633;SDS011;1833;42.718;23.270;2023-07-13T11:04:41;36.50;;;33.40;;
3633;SDS011;1833;42.718;23.270;2023-07-13T11:07:18;35.20;;;32.33;;
3633;SDS011;1833;42.718;23.270;2023-07-13T11:09:48;35.85;;;32.45;;
3633;SDS011;1833;42.718;23.270;2023-07-13T11:12:48;35.63;;;32.50;;
3633;SDS011;1833;42.718;23.270;2023-07-13T11:15:27;36.38;;;32.45;;
3633;SDS011;1833;42.718;23.270;2023-07-13T11:17:54;35.85;;;32.53;;
3633;SDS011;1833;42.718;23.270;2023-07-13T11:20:35;35.50;;;32.03;;
3633;SDS011;1833;42.718;23.270;2023-07-13T11:23:21;35.88;;;32.80;;
3633;SDS011;1833;42.718;23.270;2023-07-13T11:25:53;36.80;;;33.58;;
3633;SDS011;1833;42.718;23.270;2023-07-13T11:28:24;34.88;;;31.55;;
3633;SDS011;1833;42.718;23.270;2023-07-13T11:31:04;39.40;;;35.63;;
3633;SDS011;1833;42.718;23.270;2023-07-13T11:33:56;37.60;;;34.42;;
3633;SDS011;1833;42.718;23.270;2023-07-13T11:36:27;36.78;;;33.03;;
3633;SDS011;1833;42.718;23.270;2023-07-13T11:38:58;34.75;;;31.55;;
3633;SDS011;1833;42.718;23.270;2023-07-13T11:41:26;37.65;;;33.75;;
3633;SDS011;1833;42.718;23.270;2023-07-13T11:43:55;36.65;;;32.63;;
3633;SDS011;1833;42.718;23.270;2023-07-13T11:46:25;35.28;;;32.03;;
3633;SDS011;1833;42.718;23.270;2023-07-13T11:48:52;37.47;;;33.95;;
3633;SDS011;1833;42.718;23.270;2023-07-13T11:51:20;35.65;;;31.88;;
3633;SDS011;1833;42.718;23.270;2023-07-13T11:53:49;37.33;;;33.45;;
3633;SDS011;1833;42.718;23.270;2023-07-13T11:56:17;36.85;;;33.35;;
3633;SDS011;1833;42.718;23.270;2023-07-13T11:58:47;38.05;;;34.25;;
3633;SDS011;1833;42.718;23.270;2023-07-13T12:01:17;35.72;;;32.53;;
3633;SDS011;1833;42.718;23.270;2023-07-13T12:03:46;36.75;;;33.35;;
3633;SDS011;1833;42.718;23.270;2023-07-13T12:06:21;36.90;;;33.67;;
3633;SDS011;1833;42.718;23.270;2023-07-13T12:08:50;36.28;;;33.17;;
3633;SDS011;1833;42.718;23.270;2023-07-13T12:11:18;35.53;;;32.53;;
3633;SDS011;1833;42.718;23.270;2023-07-13T12:13:47;38.53;;;34.40;;
3633;SDS011;1833;42.718;23.270;2023-07-13T12:16:15;37.30;;;34.00;;
3633;SDS011;1833;42.718;23.270;2023-07-13T12:18:43;37.53;;;34.00;;
3633;SDS011;1833;42.718;23.270;2023-07-13T12:21:16;40.50;;;35.90;;
3633;SDS011;1833;42.718;23.270;2023-07-13T12:23:44;36.95;;;33.42;;
3633;SDS011;1833;42.718;23.270;2023-07-13T12:26:14;37.92;;;34.22;;
3633;SDS011;1833;42.718;23.270;2023-07-13T12:28:44;37.42;;;33.85;;
3633;SDS011;1833;42.718;23.270;2023-07-13T12:31:32;35.53;;;32.33;;
3633;SDS011;1833;42.718;23.270;2023-07-13T12:34:01;39.78;;;36.33;;
3633;SDS011;1833;42.718;23.270;2023-07-13T12:36:31;39.22;;;35.20;;
3633;SDS011;1833;42.718;23.270;2023-07-13T12:38:59;38.50;;;34.58;;
3633;SDS011;1833;42.718;23.270;2023-07-13T12:41:29;36.90;;;33.65;;
3633;SDS011;1833;42.718;23.270;2023-07-13T12:43:56;46.88;;;37.80;;
3633;SDS011;1833;42.718;23.270;2023-07-13T12:46:24;36.97;;;33.70;;
3633;SDS011;1833;42.718;23.270;2023-07-13T12:48:54;37.38;;;34.10;;
3633;SDS011;1833;42.718;23.270;2023-07-13T12:51:22;35.72;;;32.28;;
3633;SDS011;1833;42.718;23.270;2023-07-13T12:53:56;38.60;;;35.10;;
3633;SDS011;1833;42.718;23.270;2023-07-13T12:56:25;37.03;;;33.60;;
3633;SDS011;1833;42.718;23.270;2023-07-13T12:58:56;39.28;;;35.55;;
3633;SDS011;1833;42.718;23.270;2023-07-13T13:01:25;37.97;;;34.17;;
3633;SDS011;1833;42.718;23.270;2023-07-13T13:03:53;37.75;;;34.45;;
3633;SDS011;1833;42.718;23.270;2023-07-13T13:06:22;34.85;;;31.83;;
3633;SDS011;1833;42.718;23.270;2023-07-13T13:08:53;36.40;;;32.72;;
3633;SDS011;1833;42.718;23.270;2023-07-13T13:11:22;37.13;;;33.58;;
3633;SDS011;1833;42.718;23.270;2023-07-13T13:13:51;37.78;;;34.13;;
3633;SDS011;1833;42.718;23.270;2023-07-13T13:16:19;36.15;;;32.55;;
3633;SDS011;1833;42.718;23.270;2023-07-13T13:18:48;37.33;;;33.47;;
3633;SDS011;1833;42.718;23.270;2023-07-13T13:21:15;35.38;;;31.55;;
3633;SDS011;1833;42.718;23.270;2023-07-13T13:23:43;36.25;;;32.60;;
3633;SDS011;1833;42.718;23.270;2023-07-13T13:26:13;36.92;;;33.63;;
3633;SDS011;1833;42.718;23.270;2023-07-13T13:28:41;37.20;;;33.25;;
3633;SDS011;1833;42.718;23.270;2023-07-13T13:31:09;35.05;;;31.88;;
3633;SDS011;1833;42.718;23.270;2023-07-13T13:33:38;39.35;;;33.33;;
3633;SDS011;1833;42.718;23.270;2023-07-13T13:36:08;38.95;;;34.83;;
3633;SDS011;1833;42.718;23.270;2023-07-13T13:38:38;36.22;;;32.55;;
3633;SDS011;1833;42.718;23.270;2023-07-13T13:41:07;36.08;;;32.13;;
3633;SDS011;1833;42.718;23.270;2023-07-13T13:43:36;41.10;;;33.83;;
3633;SDS011;1833;42.718;23.270;2023-07-13T13:46:05;34.63;;;31.40;;
3633;SDS011;1833;42.718;23.270;2023-07-13T13:48:36;34.72;;;31.73;;
3633;SDS011;1833;42.718;23.270;2023-07-13T13:51:06;34.13;;;30.98;;
3633;SDS011;1833;42.718;23.270;2023-07-13T13:53:38;37.35;;;33.60;;
3633;SDS011;1833;42.718;23.270;2023-07-13T13:56:05;34.33;;;31.38;;
3633;SDS011;1833;42.718;23.270;2023-07-13T13:58:32;32.38;;;29.65;;
3633;SDS011;1833;42.718;23.270;2023-07-13T14:01:01;34.15;;;31.35;;
3633;SDS011;1833;42.718;23.270;2023-07-13T14:03:31;37.55;;;33.90;;
3633;SDS011;1833;42.718;23.270;2023-07-13T14:05:58;36.58;;;33.15;;
3633;SDS011;1833;42.718;23.270;2023-07-13T14:08:25;37.88;;;34.17;;
3633;SDS011;1833;42.718;23.270;2023-07-13T14:10:53;40.13;;;36.72;;
3633;SDS011;1833;42.718;23.270;2023-07-13T14:13:22;38.78;;;35.13;;
3633;SDS011;1833;42.718;23.270;2023-07-13T14:15:51;40.47;;;36.28;;
3633;SDS011;1833;42.718;23.270;2023-07-13T14:18:20;40.25;;;36.85;;
3633;SDS011;1833;42.718;23.270;2023-07-13T14:20:48;39.38;;;35.60;;
3633;SDS011;1833;42.718;23.270;2023-07-13T14:23:17;35.08;;;31.90;;
3633;SDS011;1833;42.718;23.270;2023-07-13T14:25:45;38.05;;;34.47;;
3633;SDS011;1833;42.718;23.270;2023-07-13T14:28:22;39.05;;;34.97;;
3633;SDS011;1833;42.718;23.270;2023-07-13T14:30:50;37.42;;;34.22;;
3633;SDS011;1833;42.718;23.270;2023-07-13T14:33:17;37.00;;;33.58;;
3633;SDS011;1833;42.718;23.270;2023-07-13T14:35:46;40.63;;;36.35;;
3633;SDS011;1833;42.718;23.270;2023-07-13T14:38:15;39.22;;;35.90;;
3633;SDS011;1833;42.718;23.270;2023-07-13T14:40:43;37.83;;;34.80;;
3633;SDS011;1833;42.718;23.270;2023-07-13T14:43:11;38.38;;;34.45;;